Time,TemperatureF,DewpointF,PressureIn,WindDirection,WindDirectionDegrees,WindSpeedMPH,WindSpeedGustMPH,Humidity,HourlyPrecipIn,Conditions,Clouds,dailyrainin,SoftwareType,DateUTC
2013-03-11 00:03:00,32.7,32.7,24.39,ENE,68,2.5,3.8,100,-99.99,,,-99.99,WSDL version 420,2013-03-11 06:03:00,
2013-03-11 00:08:00,32.5,32.5,24.39,ENE,75,2.2,3.6,100,-99.99,,,-99.99,WSDL version 420,2013-03-11 06:08:00,
2013-03-11 00:13:00,32.8,32.8,24.39,East,79,3.4,6.5,100,-99.99,,,-99.99,WSDL version 420,2013-03-11 06:13:00,
2013-03-11 00:18:00,32.7,32.7,24.39,East,81,1.9,6.5,100,-99.99,,,-99.99,WSDL version 420,2013-03-11 06:18:00,
2013-03-11 00:23:00,32.6,32.6,24.39,ENE,68,2.5,3.6,100,-99.99,,,-99.99,WSDL version 420,2013-03-11 06:23:00,
2013-03-11 00:28:00,32.7,32.7,24.39,East,83,2.8,3.6,100,-99.99,,,-99.99,WSDL version 420,2013-03-11 06:28:00,
2013-03-11 00:33:00,32.5,32.5,24.39,East,90,1.4,3.1,100,-99.99,,,-99.99,WSDL version 420,2013-03-11 06:33:00,
2013-03-11 00:38:00,32.4,32.4,24.39,East,90,0.0,2.2,100,-99.99,,,-99.99,WSDL version 420,2013-03-11 06:38:00,
2013-03-11 00:43:00,32.4,32.4,24.39,East,90,0.9,3.6,100,-99.99,,,-99.99,WSDL version 420,2013-03-11 06:43:00,
2013-03-11 00:48:00,32.4,32.4,24.39,East,90,0.0,3.6,100,-99.99,,,-99.99,WSDL version 420,2013-03-11 06:48:00,
2013-03-11 00:53:00,32.2,32.2,24.39,ENE,68,0.0,1.1,100,-99.99,,,-99.99,WSDL version 420,2013-03-11 06:53:00,
2013-03-11 00:58:00,32.1,32.1,24.39,East,90,0.0,1.1,100,-99.99,,,-99.99,WSDL version 420,2013-03-11 06:58:00,
2013-03-11 01:03:00,31.8,31.8,24.39,ENE,68,1.3,2.2,100,0.00,,,0.00,WSDL version 420,2013-03-11 07:03:00,
2013-03-11 01:13:00,32.2,32.2,24.39,East,83,1.5,2.2,100,-99.99,,,-99.99,WSDL version 420,2013-03-11 07:13:00,
2013-03-11 01:18:00,32.2,32.2,24.39,ENE,68,2.1,3.4,100,-99.99,,,-99.99,WSDL version 420,2013-03-11 07:18:00,
2013-03-11 01:23:00,32.2,32.2,24.39,ENE,68,2.3,3.4,100,-99.99,,,-99.99,WSDL version 420,2013-03-11 07:23:00,
2013-03-11 01:28:00,32.1,32.1,24.39,East,90,1.8,2.5,100,-99.99,,,-99.99,WSDL version 420,2013-03-11 07:28:00,
2013-03-11 01:33:00,32.1,32.1,24.39,East,83,3.2,3.8,100,-99.99,,,-99.99,WSDL version 420,2013-03-11 07:33:00,
2013-03-11 01:38:00,32.1,32.1,24.39,ENE,75,3.6,4.0,100,-99.99,,,-99.99,WSDL version 420,2013-03-11 07:38:00,
2013-03-11 01:43:00,32.4,32.4,24.39,East,90,1.0,4.9,100,-99.99,,,-99.99,WSDL version 420,2013-03-11 07:43:00,
2013-03-11 01:48:00,32.9,32.9,24.39,East,90,7.2,8.7,100,-99.99,,,-99.99,WSDL version 420,2013-03-11 07:48:00,
2013-03-11 01:53:00,33.1,33.1,24.39,SE,128,4.0,8.7,100,-99.99,,,-99.99,WSDL version 420,2013-03-11 07:53:00,
2013-03-11 01:58:00,33.2,33.2,24.39,ENE,60,5.4,8.1,100,0.00,,,0.00,WSDL version 420,2013-03-11 07:58:00,
2013-03-11 02:03:00,33.6,33.6,24.39,East,83,6.2,8.1,100,0.00,,,0.00,WSDL version 420,2013-03-11 08:03:00,
2013-03-11 02:08:00,33.7,33.7,24.39,ENE,75,4.7,7.6,100,0.00,,,0.00,WSDL version 420,2013-03-11 08:08:00,
2013-03-11 02:13:00,33.9,33.9,24.39,East,90,6.0,6.0,100,-99.99,,,-99.99,WSDL version 420,2013-03-11 08:13:00,
2013-03-11 02:18:00,34.0,34.0,24.36,ENE,72,4.7,6.0,100,-99.99,,,-99.99,WSDL version 420,2013-03-11 08:18:00,
2013-03-11 02:23:00,34.0,33.9,24.36,NNE,23,1.5,5.8,99,-99.99,,,-99.99,WSDL version 420,2013-03-11 08:23:00,
2013-03-11 02:28:00,34.5,34.0,24.36,ENE,68,7.0,10.3,98,-99.99,,,-99.99,WSDL version 420,2013-03-11 08:28:00,
2013-03-11 02:33:00,34.3,33.4,24.36,SE,143,1.7,10.3,96,0.00,,,0.00,WSDL version 420,2013-03-11 08:33:00,
2013-03-11 02:38:00,34.3,33.1,24.36,ENE,68,3.8,6.0,96,0.00,,,0.00,WSDL version 420,2013-03-11 08:38:00,
2013-03-11 02:43:00,34.0,32.9,24.36,East,98,4.6,6.3,96,0.00,,,0.00,WSDL version 420,2013-03-11 08:43:00,
2013-03-11 02:48:00,34.2,33.0,24.36,East,84,3.3,7.6,96,0.00,,,0.00,WSDL version 420,2013-03-11 08:48:00,
2013-03-11 02:53:00,33.9,32.8,24.36,ENE,68,3.6,7.6,96,0.00,,,0.00,WSDL version 420,2013-03-11 08:53:00,
2013-03-11 02:58:00,33.7,32.7,24.36,East,83,3.7,5.4,97,0.00,,,0.00,WSDL version 420,2013-03-11 08:58:00,
2013-03-11 03:03:00,33.7,32.7,24.36,East,90,3.4,5.4,96,0.00,,,0.00,WSDL version 420,2013-03-11 09:03:00,
2013-03-11 03:08:00,33.7,32.9,24.36,East,90,3.7,5.6,97,0.00,,,0.00,WSDL version 420,2013-03-11 09:08:00,
2013-03-11 03:13:00,33.9,33.0,24.36,ENE,60,4.0,10.5,97,0.00,,,0.00,WSDL version 420,2013-03-11 09:13:00,
2013-03-11 03:18:00,34.1,33.2,24.36,ENE,68,6.7,10.5,97,0.00,,,0.00,WSDL version 420,2013-03-11 09:18:00,
2013-03-11 03:23:00,34.1,33.3,24.36,East,90,4.5,8.5,97,0.00,,,0.00,WSDL version 420,2013-03-11 09:23:00,
2013-03-11 03:28:00,34.1,33.1,24.36,ENE,68,6.9,8.1,96,0.00,,,0.00,WSDL version 420,2013-03-11 09:28:00,
2013-03-11 03:33:00,34.1,33.0,24.36,East,90,6.3,8.1,96,0.00,,,0.00,WSDL version 420,2013-03-11 09:33:00,
2013-03-11 03:38:00,34.3,33.1,24.36,East,84,8.2,8.7,96,0.00,,,0.00,WSDL version 420,2013-03-11 09:38:00,
2013-03-11 03:43:00,34.4,33.3,24.36,ENE,68,4.7,8.7,96,-99.99,,,-99.99,WSDL version 420,2013-03-11 09:43:00,
2013-03-11 03:48:00,34.6,33.4,24.36,East,90,7.0,10.7,96,-99.99,,,-99.99,WSDL version 420,2013-03-11 09:48:00,
2013-03-11 03:53:00,34.6,33.2,24.36,ENE,68,7.5,10.7,94,-99.99,,,-99.99,WSDL version 420,2013-03-11 09:53:00,
2013-03-11 03:58:00,34.8,33.4,24.36,East,98,8.7,10.3,94,-99.99,,,-99.99,WSDL version 420,2013-03-11 09:58:00,
2013-03-11 04:03:00,34.9,33.2,24.33,ENE,73,7.3,10.5,93,-99.99,,,-99.99,WSDL version 420,2013-03-11 10:03:00,
2013-03-11 04:08:00,34.9,33.2,24.33,East,83,4.0,10.5,93,-99.99,,,-99.99,WSDL version 420,2013-03-11 10:08:00,
2013-03-11 04:13:00,35.0,33.2,24.33,ENE,73,8.2,8.7,93,-99.99,,,-99.99,WSDL version 420,2013-03-11 10:13:00,
2013-03-11 04:20:00,34.9,33.2,24.33,East,79,4.7,8.7,93,-99.99,,,-99.99,WSDL version 420,2013-03-11 10:20:00,
2013-03-11 04:25:00,34.5,33.0,24.33,ENE,68,3.9,8.7,94,-99.99,,,-99.99,WSDL version 420,2013-03-11 10:25:00,
2013-03-11 04:30:00,34.4,33.0,24.33,East,90,4.9,6.3,94,-99.99,,,-99.99,WSDL version 420,2013-03-11 10:30:00,
2013-03-11 04:35:00,34.4,33.0,24.33,ENE,68,5.2,7.2,94,-99.99,,,-99.99,WSDL version 420,2013-03-11 10:35:00,
2013-03-11 04:40:00,34.3,32.9,24.33,ENE,68,3.6,7.4,94,-99.99,,,-99.99,WSDL version 420,2013-03-11 10:40:00,
2013-03-11 04:45:00,34.3,33.0,24.33,ENE,68,2.2,7.4,96,-99.99,,,-99.99,WSDL version 420,2013-03-11 10:45:00,
2013-03-11 04:50:00,34.2,33.0,24.33,WSW,248,0.4,4.9,96,-99.99,,,-99.99,WSDL version 420,2013-03-11 10:50:00,
2013-03-11 04:55:00,34.3,33.0,24.33,SSE,158,0.0,1.6,94,-99.99,,,-99.99,WSDL version 420,2013-03-11 10:55:00,
2013-03-11 05:00:00,34.0,32.6,24.33,SSE,158,0.0,1.6,94,0.00,,,0.00,WSDL version 420,2013-03-11 11:00:00,
2013-03-11 05:10:00,33.6,32.2,24.33,SW,233,0.7,2.0,94,-99.99,,,-99.99,WSDL version 420,2013-03-11 11:10:00,
2013-03-11 05:15:00,33.4,32.0,24.33,WSW,240,2.0,2.2,94,-99.99,,,-99.99,WSDL version 420,2013-03-11 11:15:00,
2013-03-11 05:20:00,33.3,31.8,24.33,SSW,203,0.4,2.2,94,-99.99,,,-99.99,WSDL version 420,2013-03-11 11:20:00,
2013-03-11 05:25:00,33.3,31.8,24.33,SSE,158,0.0,1.1,94,-99.99,,,-99.99,WSDL version 420,2013-03-11 11:25:00,
2013-03-11 05:30:00,33.1,31.7,24.33,SSW,208,0.0,1.1,94,-99.99,,,-99.99,WSDL version 420,2013-03-11 11:30:00,
2013-03-11 05:35:00,33.2,31.8,24.36,East,90,0.0,0.0,94,-99.99,,,-99.99,WSDL version 420,2013-03-11 11:35:00,
2013-03-11 05:40:00,33.2,31.8,24.36,SE,143,2.5,3.8,94,-99.99,,,-99.99,WSDL version 420,2013-03-11 11:40:00,
2013-03-11 05:45:00,33.1,31.6,24.36,ESE,117,0.2,3.8,93,-99.99,,,-99.99,WSDL version 420,2013-03-11 11:45:00,
2013-03-11 05:50:00,33.1,31.4,24.36,East,90,0.8,3.1,93,-99.99,,,-99.99,WSDL version 420,2013-03-11 11:50:00,
2013-03-11 05:55:00,33.1,31.2,24.36,ENE,68,1.9,3.1,92,-99.99,,,-99.99,WSDL version 420,2013-03-11 11:55:00,
2013-03-11 06:00:00,33.2,30.8,24.36,ENE,75,3.9,4.3,90,-99.99,,,-99.99,WSDL version 420,2013-03-11 12:00:00,
2013-03-11 06:05:00,33.5,30.8,24.36,East,90,5.0,6.0,89,-99.99,,,-99.99,WSDL version 420,2013-03-11 12:05:00,
2013-03-11 06:10:00,34.3,30.9,24.36,East,83,7.0,14.1,87,-99.99,,,-99.99,WSDL version 420,2013-03-11 12:10:00,
2013-03-11 06:20:00,35.0,27.5,24.36,ENE,68,7.7,12.8,73,-99.99,,,-99.99,WSDL version 420,2013-03-11 12:20:00,
2013-03-11 06:25:00,35.2,26.6,24.36,ENE,75,9.8,12.8,70,-99.99,,,-99.99,WSDL version 420,2013-03-11 12:25:00,
2013-03-11 06:30:00,35.5,25.9,24.36,East,90,8.7,14.3,67,-99.99,,,-99.99,WSDL version 420,2013-03-11 12:30:00,
2013-03-11 06:35:00,35.4,25.2,24.36,SE,143,5.9,14.3,66,-99.99,,,-99.99,WSDL version 420,2013-03-11 12:35:00,
2013-03-11 06:40:00,35.4,24.7,24.36,East,84,5.8,8.5,64,-99.99,,,-99.99,WSDL version 420,2013-03-11 12:40:00,
2013-03-11 06:45:00,35.4,24.5,24.36,North,349,3.4,8.5,65,-99.99,,,-99.99,WSDL version 420,2013-03-11 12:45:00,
2013-03-11 06:50:00,35.5,23.7,24.36,ENE,68,5.6,5.8,61,-99.99,,,-99.99,WSDL version 420,2013-03-11 12:50:00,
2013-03-11 06:55:00,35.7,23.8,24.36,East,98,5.1,7.8,62,-99.99,,,-99.99,WSDL version 420,2013-03-11 12:55:00,
2013-03-11 07:05:00,35.5,23.9,24.36,NE,53,5.8,12.8,62,-99.99,,,-99.99,WSDL version 420,2013-03-11 13:05:00,
2013-03-11 07:10:00,35.6,23.4,24.36,East,83,6.5,9.6,60,-99.99,,,-99.99,WSDL version 420,2013-03-11 13:10:00,
2013-03-11 07:15:00,35.6,23.3,24.36,ESE,108,6.2,13.0,60,-99.99,,,-99.99,WSDL version 420,2013-03-11 13:15:00,
2013-03-11 07:20:00,35.7,23.7,24.36,East,98,4.3,13.0,62,-99.99,,,-99.99,WSDL version 420,2013-03-11 13:20:00,
2013-03-11 07:25:00,35.5,24.0,24.36,ENE,68,2.9,12.8,63,-99.99,,,-99.99,WSDL version 420,2013-03-11 13:25:00,
2013-03-11 07:30:00,35.4,24.1,24.36,ENE,75,6.3,12.8,63,-99.99,,,-99.99,WSDL version 420,2013-03-11 13:30:00,
2013-03-11 07:40:00,35.5,24.0,24.36,ENE,75,4.0,6.0,63,0.00,,,0.00,WSDL version 420,2013-03-11 13:40:00,
2013-03-11 07:45:00,35.4,23.1,24.36,ENE,68,2.9,6.0,60,-99.99,,,-99.99,WSDL version 420,2013-03-11 13:45:00,
2013-03-11 07:50:00,-999.0,-99.9,24.36,East,79,6.2,6.5,-999,-99.99,,,-99.99,WSDL version 420,2013-03-11 13:50:00,
2013-03-11 07:55:00,35.1,23.8,24.36,ENE,75,2.5,6.5,64,-99.99,,,-99.99,WSDL version 420,2013-03-11 13:55:00,
2013-03-11 08:00:00,35.1,23.5,24.36,East,83,4.3,9.8,62,-99.99,,,-99.99,WSDL version 420,2013-03-11 14:00:00,
2013-03-11 08:05:00,35.1,23.5,24.39,ENE,75,5.2,9.8,61,-99.99,,,-99.99,WSDL version 420,2013-03-11 14:05:00,
2013-03-11 08:10:00,35.2,23.5,24.39,SE,143,3.6,8.5,62,-99.99,,,-99.99,WSDL version 420,2013-03-11 14:10:00,
2013-03-11 08:15:00,35.1,23.4,24.39,NE,54,6.3,8.7,61,0.00,,,0.00,WSDL version 420,2013-03-11 14:15:00,
2013-03-11 08:20:00,35.4,23.4,24.36,East,84,5.0,8.7,61,-99.99,,,-99.99,WSDL version 420,2013-03-11 14:20:00,
2013-03-11 08:25:00,35.4,23.2,24.36,NNW,330,6.1,13.0,60,0.00,,,0.00,WSDL version 420,2013-03-11 14:25:00,
2013-03-11 08:30:00,35.6,22.6,24.36,East,83,11.5,13.2,59,0.00,,,0.00,WSDL version 420,2013-03-11 14:30:00,
2013-03-11 08:35:00,35.7,22.6,24.39,ENE,75,4.2,13.2,58,-99.99,,,-99.99,WSDL version 420,2013-03-11 14:35:00,
2013-03-11 08:40:00,35.7,23.2,24.39,ENE,75,8.9,10.7,60,-99.99,,,-99.99,WSDL version 420,2013-03-11 14:40:00,
2013-03-11 08:45:00,35.6,23.0,24.39,NE,53,8.1,10.7,60,0.00,,,0.00,WSDL version 420,2013-03-11 14:45:00,
2013-03-11 08:50:00,35.8,23.3,24.39,East,83,5.1,12.5,60,-99.99,,,-99.99,WSDL version 420,2013-03-11 14:50:00,
2013-03-11 08:55:00,35.8,23.2,24.39,East,83,7.8,12.5,59,0.00,,,0.00,WSDL version 420,2013-03-11 14:55:00,
2013-03-11 09:00:00,36.3,22.6,24.39,ENE,68,12.0,12.3,56,0.00,,,0.00,WSDL version 420,2013-03-11 15:00:00,
2013-03-11 09:05:00,36.7,22.5,24.36,East,90,7.5,13.2,56,-99.99,,,-99.99,WSDL version 420,2013-03-11 15:05:00,
2013-03-11 09:10:00,36.9,21.6,24.36,NE,53,10.3,13.2,53,0.00,,,0.00,WSDL version 420,2013-03-11 15:10:00,
2013-03-11 09:15:00,37.0,21.5,24.36,ENE,73,9.1,13.9,53,0.00,,,0.00,WSDL version 420,2013-03-11 15:15:00,
2013-03-11 09:20:00,37.0,21.7,24.36,ENE,68,10.3,13.9,54,-99.99,,,-99.99,WSDL version 420,2013-03-11 15:20:00,
2013-03-11 09:25:00,37.1,22.4,24.36,East,79,6.2,10.7,55,-99.99,,,-99.99,WSDL version 420,2013-03-11 15:25:00,
2013-03-11 09:30:00,37.0,22.9,24.36,East,83,7.5,10.5,56,-99.99,,,-99.99,WSDL version 420,2013-03-11 15:30:00,
2013-03-11 09:35:00,37.3,23.1,24.39,East,90,8.4,10.5,56,0.00,,,0.00,WSDL version 420,2013-03-11 15:35:00,
2013-03-11 09:40:00,37.6,23.1,24.39,ENE,60,8.1,9.2,56,0.00,,,0.00,WSDL version 420,2013-03-11 15:40:00,
2013-03-11 09:45:00,37.3,24.0,24.39,ENE,62,4.4,8.7,59,-99.99,,,-99.99,WSDL version 420,2013-03-11 15:45:00,
2013-03-11 09:50:00,37.6,24.2,24.39,East,83,8.4,8.7,57,0.00,,,0.00,WSDL version 420,2013-03-11 15:50:00,
2013-03-11 09:55:00,38.1,24.3,24.39,East,96,3.7,11.0,58,0.00,,,0.00,WSDL version 420,2013-03-11 15:55:00,
2013-03-11 10:00:00,38.1,26.2,24.39,North,8,1.4,11.0,63,-99.99,,,-99.99,WSDL version 420,2013-03-11 16:00:00,
2013-03-11 10:05:00,38.4,26.9,24.39,ENE,73,3.7,5.8,63,0.00,,,0.00,WSDL version 420,2013-03-11 16:05:00,
2013-03-11 10:10:00,38.6,27.0,24.39,ENE,73,4.0,6.0,65,0.00,,,0.00,WSDL version 420,2013-03-11 16:10:00,
2013-03-11 10:15:00,38.7,30.8,24.39,SSE,158,1.7,6.0,76,-99.99,,,-99.99,WSDL version 420,2013-03-11 16:15:00,
2013-03-11 10:20:00,38.8,33.1,24.39,East,83,4.4,6.0,81,0.00,,,0.00,WSDL version 420,2013-03-11 16:20:00,
2013-03-11 10:25:00,39.2,33.9,24.39,NE,45,2.5,6.0,79,-99.99,,,-99.99,WSDL version 420,2013-03-11 16:25:00,
2013-03-11 10:30:00,39.6,34.1,24.39,ENE,68,0.9,6.0,81,0.00,,,0.00,WSDL version 420,2013-03-11 16:30:00,
2013-03-11 10:35:00,40.0,33.4,24.39,WSW,248,2.9,4.9,76,0.00,,,0.00,WSDL version 420,2013-03-11 16:35:00,
2013-03-11 10:40:00,40.5,33.7,24.39,SE,124,2.9,4.9,77,-99.99,,,-99.99,WSDL version 420,2013-03-11 16:40:00,
2013-03-11 10:45:00,40.4,34.0,24.39,North,8,1.5,3.8,76,0.00,,,0.00,WSDL version 420,2013-03-11 16:45:00,
2013-03-11 10:50:00,40.6,34.2,24.39,North,353,2.6,3.4,77,0.00,,,0.00,WSDL version 420,2013-03-11 16:50:00,
2013-03-11 10:55:00,41.1,34.2,24.39,East,84,2.2,4.9,77,-99.99,,,-99.99,WSDL version 420,2013-03-11 16:55:00,
2013-03-11 11:00:00,41.1,35.2,24.39,ENE,68,2.3,4.9,79,-99.99,,,-99.99,WSDL version 420,2013-03-11 17:00:00,
2013-03-11 11:05:00,41.2,35.6,24.39,East,90,7.4,10.3,80,-99.99,,,-99.99,WSDL version 420,2013-03-11 17:05:00,
2013-03-11 11:10:00,41.2,34.7,24.39,ENE,77,6.4,10.3,78,-99.99,,,-99.99,WSDL version 420,2013-03-11 17:10:00,
2013-03-11 11:15:00,41.4,35.7,24.39,East,83,7.7,11.0,81,0.00,,,0.00,WSDL version 420,2013-03-11 17:15:00,
2013-03-11 11:20:00,41.2,35.5,24.36,East,90,7.3,11.0,79,0.00,,,0.00,WSDL version 420,2013-03-11 17:20:00,
2013-03-11 11:25:00,41.3,35.4,24.36,ESE,104,4.1,9.6,79,0.00,,,0.00,WSDL version 420,2013-03-11 17:25:00,
2013-03-11 11:30:00,41.4,34.6,24.36,NE,53,5.4,10.3,73,0.00,,,0.00,WSDL version 420,2013-03-11 17:30:00,
2013-03-11 11:35:00,41.6,33.9,24.36,ENE,68,4.8,10.3,74,-99.99,,,-99.99,WSDL version 420,2013-03-11 17:35:00,
2013-03-11 11:40:00,41.6,34.3,24.36,NNE,23,4.6,10.3,74,0.00,,,0.00,WSDL version 420,2013-03-11 17:40:00,
2013-03-11 11:45:00,41.8,35.6,24.36,NE,45,7.8,9.8,79,-99.99,,,-99.99,WSDL version 420,2013-03-11 17:45:00,
2013-03-11 11:50:00,42.0,35.3,24.36,ENE,75,9.9,11.9,77,-99.99,,,-99.99,WSDL version 420,2013-03-11 17:50:00,
2013-03-11 11:55:00,41.9,35.3,24.36,East,79,7.0,11.9,79,0.00,,,0.00,WSDL version 420,2013-03-11 17:55:00,
2013-03-11 12:00:00,42.3,36.0,24.36,ENE,68,4.0,11.0,78,0.00,,,0.00,WSDL version 420,2013-03-11 18:00:00,
2013-03-11 12:05:00,42.5,36.2,24.36,ENE,75,12.7,14.8,78,0.00,,,0.00,WSDL version 420,2013-03-11 18:05:00,
2013-03-11 12:10:00,42.7,35.9,24.36,ENE,77,8.8,14.8,75,-99.99,,,-99.99,WSDL version 420,2013-03-11 18:10:00,
2013-03-11 12:15:00,42.9,34.1,24.36,ENE,68,10.6,14.3,72,0.00,,,0.00,WSDL version 420,2013-03-11 18:15:00,
2013-03-11 12:20:00,43.3,33.7,24.36,ENE,62,11.7,13.0,68,-99.99,,,-99.99,WSDL version 420,2013-03-11 18:20:00,
2013-03-11 12:25:00,43.7,33.2,24.36,ENE,60,12.1,13.6,66,-99.99,,,-99.99,WSDL version 420,2013-03-11 18:25:00,
2013-03-11 12:30:00,43.9,32.0,24.36,East,90,8.1,13.6,62,0.00,,,0.00,WSDL version 420,2013-03-11 18:30:00,
2013-03-11 12:35:00,44.2,30.2,24.36,ENE,60,13.9,21.9,57,-99.99,,,-99.99,WSDL version 420,2013-03-11 18:35:00,
2013-03-11 12:40:00,44.1,30.2,24.36,East,90,11.1,21.9,59,0.00,,,0.00,WSDL version 420,2013-03-11 18:40:00,
2013-03-11 12:45:00,43.9,29.9,24.36,NE,53,7.6,13.4,57,0.00,,,0.00,WSDL version 420,2013-03-11 18:45:00,
2013-03-11 12:50:00,43.9,29.8,24.36,ENE,60,6.6,15.4,57,0.00,,,0.00,WSDL version 420,2013-03-11 18:50:00,
2013-03-11 12:55:00,44.2,30.0,24.36,South,186,3.0,15.4,56,0.00,,,0.00,WSDL version 420,2013-03-11 18:55:00,
2013-03-11 13:00:00,44.6,29.4,24.36,WSW,248,6.0,7.6,55,0.00,,,0.00,WSDL version 420,2013-03-11 19:00:00,
2013-03-11 13:10:00,44.4,29.9,24.36,East,81,9.9,15.2,56,0.00,,,0.00,WSDL version 420,2013-03-11 19:10:00,
2013-03-11 13:15:00,45.1,28.7,24.36,ENE,68,3.6,13.2,51,-99.99,,,-99.99,WSDL version 420,2013-03-11 19:15:00,
2013-03-11 13:20:00,45.7,28.8,24.36,East,83,7.1,9.6,51,-99.99,,,-99.99,WSDL version 420,2013-03-11 19:20:00,
2013-03-11 13:25:00,45.6,27.9,24.36,ENE,60,6.7,10.7,50,-99.99,,,-99.99,WSDL version 420,2013-03-11 19:25:00,
2013-03-11 13:30:00,45.9,28.8,24.36,ESE,113,5.1,17.2,50,-99.99,,,-99.99,WSDL version 420,2013-03-11 19:30:00,
2013-03-11 13:35:00,45.8,28.2,24.36,NE,53,3.4,17.2,51,-99.99,,,-99.99,WSDL version 420,2013-03-11 19:35:00,
2013-03-11 13:40:00,45.7,27.8,24.36,NNE,15,7.6,14.3,49,0.00,,,0.00,WSDL version 420,2013-03-11 19:40:00,
2013-03-11 13:45:00,45.7,27.1,24.36,SE,128,4.7,13.2,48,-99.99,,,-99.99,WSDL version 420,2013-03-11 19:45:00,
2013-03-11 13:50:00,45.7,26.6,24.33,East,83,3.3,13.2,47,-99.99,,,-99.99,WSDL version 420,2013-03-11 19:50:00,
2013-03-11 13:55:00,45.9,26.6,24.33,SE,128,3.8,8.7,46,-99.99,,,-99.99,WSDL version 420,2013-03-11 19:55:00,
2013-03-11 14:00:00,46.0,26.9,24.33,SE,135,8.3,17.2,47,0.00,,,0.00,WSDL version 420,2013-03-11 20:00:00,
2013-03-11 14:05:00,46.3,27.0,24.33,ENE,60,5.2,17.2,47,0.00,,,0.00,WSDL version 420,2013-03-11 20:05:00,
2013-03-11 14:10:00,46.6,26.8,24.33,ENE,63,5.4,12.1,44,-99.99,,,-99.99,WSDL version 420,2013-03-11 20:10:00,
2013-03-11 14:15:00,46.9,26.1,24.33,ENE,60,8.4,11.0,43,-99.99,,,-99.99,WSDL version 420,2013-03-11 20:15:00,
2013-03-11 14:20:00,47.0,26.0,24.33,SE,141,12.9,15.9,43,-99.99,,,-99.99,WSDL version 420,2013-03-11 20:20:00,
2013-03-11 14:25:00,47.2,25.8,24.33,NNW,330,7.9,15.9,43,-99.99,,,-99.99,WSDL version 420,2013-03-11 20:25:00,
2013-03-11 14:30:00,47.3,25.8,24.33,East,98,9.5,13.9,43,-99.99,,,-99.99,WSDL version 420,2013-03-11 20:30:00,
2013-03-11 14:35:00,47.5,25.6,24.33,NE,45,10.1,13.0,41,-99.99,,,-99.99,WSDL version 420,2013-03-11 20:35:00,
2013-03-11 14:40:00,47.8,25.8,24.33,ENE,60,10.4,13.0,42,-99.99,,,-99.99,WSDL version 420,2013-03-11 20:40:00,
2013-03-11 14:45:00,47.9,26.3,24.33,East,83,6.9,15.9,42,-99.99,,,-99.99,WSDL version 420,2013-03-11 20:45:00,
2013-03-11 14:50:00,48.0,25.8,24.33,ENE,68,5.1,15.9,41,-99.99,,,-99.99,WSDL version 420,2013-03-11 20:50:00,
2013-03-11 14:55:00,48.4,24.8,24.33,NNE,30,12.2,18.6,40,-99.99,,,-99.99,WSDL version 420,2013-03-11 20:55:00,
2013-03-11 15:00:00,48.9,25.4,24.33,NE,45,6.0,18.6,39,0.00,,,0.00,WSDL version 420,2013-03-11 21:00:00,
2013-03-11 15:05:00,49.5,25.8,24.30,ENE,73,6.5,13.4,39,0.00,,,0.00,WSDL version 420,2013-03-11 21:05:00,
2013-03-11 15:10:00,49.8,25.9,24.30,East,83,11.5,17.4,39,0.00,,,0.00,WSDL version 420,2013-03-11 21:10:00,
2013-03-11 15:15:00,50.1,25.9,24.30,ESE,107,6.2,17.4,38,-99.99,,,-99.99,WSDL version 420,2013-03-11 21:15:00,
2013-03-11 15:20:00,50.2,25.4,24.30,East,90,11.0,16.3,38,-99.99,,,-99.99,WSDL version 420,2013-03-11 21:20:00,
2013-03-11 15:25:00,50.5,25.8,24.30,East,79,10.1,16.3,38,0.00,,,0.00,WSDL version 420,2013-03-11 21:25:00,
2013-03-11 15:30:00,50.8,25.7,24.30,East,90,22.6,22.6,38,0.00,,,0.00,WSDL version 420,2013-03-11 21:30:00,
2013-03-11 15:35:00,51.0,25.6,24.30,NNE,28,10.4,22.6,37,-99.99,,,-99.99,WSDL version 420,2013-03-11 21:35:00,
2013-03-11 15:40:00,51.1,25.9,24.30,ENE,68,9.0,16.6,37,0.00,,,0.00,WSDL version 420,2013-03-11 21:40:00,
2013-03-11 15:45:00,51.3,25.9,24.30,NNE,23,3.6,13.2,37,0.00,,,0.00,WSDL version 420,2013-03-11 21:45:00,
2013-03-11 15:50:00,51.5,26.5,24.30,East,90,6.3,15.7,37,0.00,,,0.00,WSDL version 420,2013-03-11 21:50:00,
2013-03-11 15:55:00,51.6,26.2,24.30,SSW,203,7.4,15.7,37,0.00,,,0.00,WSDL version 420,2013-03-11 21:55:00,
2013-03-11 16:00:00,51.6,26.2,24.30,ESE,105,6.9,7.4,37,0.00,,,0.00,WSDL version 420,2013-03-11 22:00:00,
2013-03-11 16:05:00,51.5,26.1,24.30,SSE,152,1.6,10.1,37,0.00,,,0.00,WSDL version 420,2013-03-11 22:05:00,
2013-03-11 16:10:00,51.4,25.4,24.30,West,266,4.2,10.1,36,-99.99,,,-99.99,WSDL version 420,2013-03-11 22:10:00,
2013-03-11 16:15:00,51.4,25.3,24.30,ENE,60,3.0,7.6,36,0.00,,,0.00,WSDL version 420,2013-03-11 22:15:00,
2013-03-11 16:20:00,51.5,25.0,24.30,ENE,75,3.7,5.4,35,-99.99,,,-99.99,WSDL version 420,2013-03-11 22:20:00,
2013-03-11 16:25:00,51.4,24.3,24.30,SE,143,3.8,6.3,34,-99.99,,,-99.99,WSDL version 420,2013-03-11 22:25:00,
2013-03-11 16:30:00,51.4,24.0,24.30,SW,218,2.0,6.3,34,0.00,,,0.00,WSDL version 420,2013-03-11 22:30:00,
2013-03-11 16:35:00,51.3,25.0,24.33,ESE,117,4.7,5.8,36,-99.99,,,-99.99,WSDL version 420,2013-03-11 22:35:00,
2013-03-11 16:40:00,51.5,24.5,24.33,SE,128,6.0,7.2,34,-99.99,,,-99.99,WSDL version 420,2013-03-11 22:40:00,
2013-03-11 16:45:00,51.5,24.8,24.33,West,263,2.8,9.2,35,0.00,,,0.00,WSDL version 420,2013-03-11 22:45:00,
2013-03-11 16:50:00,50.4,25.1,24.36,SSW,203,8.8,12.3,38,0.00,,,0.00,WSDL version 420,2013-03-11 22:50:00,
2013-03-11 16:55:00,47.8,24.1,24.36,SW,233,6.3,12.3,40,-99.99,,,-99.99,WSDL version 420,2013-03-11 22:55:00,
2013-03-11 17:00:00,46.2,24.4,24.36,SW,218,11.6,15.2,43,0.00,,,0.00,WSDL version 420,2013-03-11 23:00:00,
2013-03-11 17:05:00,45.4,24.8,24.36,WSW,243,6.0,15.2,44,-99.99,,,-99.99,WSDL version 420,2013-03-11 23:05:00,
2013-03-11 17:15:00,43.7,25.0,24.36,SSW,203,5.6,8.5,48,-99.99,,,-99.99,WSDL version 420,2013-03-11 23:15:00,
2013-03-11 17:20:00,43.2,25.0,24.36,WSW,248,2.9,7.6,48,-99.99,,,-99.99,WSDL version 420,2013-03-11 23:20:00,
2013-03-11 17:25:00,42.4,24.6,24.36,SW,218,7.8,10.3,49,-99.99,,,-99.99,WSDL version 420,2013-03-11 23:25:00,
2013-03-11 17:30:00,41.9,24.6,24.36,SW,218,5.7,10.3,50,-99.99,,,-99.99,WSDL version 420,2013-03-11 23:30:00,
2013-03-11 17:35:00,41.5,24.4,24.39,SW,221,3.3,8.7,51,-99.99,,,-99.99,WSDL version 420,2013-03-11 23:35:00,
2013-03-11 17:40:00,41.0,24.4,24.39,SSW,203,5.2,8.5,52,-99.99,,,-99.99,WSDL version 420,2013-03-11 23:40:00,
2013-03-11 17:45:00,40.7,24.6,24.39,WSW,248,7.8,9.6,53,0.00,,,0.00,WSDL version 420,2013-03-11 23:45:00,
2013-03-11 17:50:00,40.3,24.6,24.42,WSW,248,2.6,9.6,53,0.00,,,0.00,WSDL version 420,2013-03-11 23:50:00,
2013-03-11 17:55:00,40.0,24.3,24.42,SSW,210,2.3,4.9,53,0.00,,,0.00,WSDL version 420,2013-03-11 23:55:00,
2013-03-11 18:00:00,39.6,23.9,24.42,WSW,248,3.7,4.0,53,0.00,,,0.00,WSDL version 420,2013-03-12 00:00:00,
2013-03-11 18:05:00,39.3,24.0,24.42,SW,225,3.8,4.7,54,0.00,,,0.00,WSDL version 420,2013-03-12 00:05:00,
2013-03-11 18:10:00,39.1,23.9,24.42,West,278,4.8,5.4,54,0.00,,,0.00,WSDL version 420,2013-03-12 00:10:00,
2013-03-11 18:15:00,39.0,24.2,24.42,SW,233,2.5,5.8,55,-99.99,,,-99.99,WSDL version 420,2013-03-12 00:15:00,
2013-03-11 18:20:00,38.7,24.1,24.45,WSW,240,3.6,5.8,56,-99.99,,,-99.99,WSDL version 420,2013-03-12 00:20:00,
2013-03-11 18:25:00,38.7,24.3,24.45,SW,233,1.4,4.9,56,-99.99,,,-99.99,WSDL version 420,2013-03-12 00:25:00,
2013-03-11 18:30:00,38.7,24.6,24.45,SW,233,0.6,4.3,57,-99.99,,,-99.99,WSDL version 420,2013-03-12 00:30:00,
2013-03-11 18:35:00,38.4,24.5,24.45,SW,214,0.6,4.0,57,-99.99,,,-99.99,WSDL version 420,2013-03-12 00:35:00,
2013-03-11 18:40:00,38.1,24.5,24.45,WSW,240,4.1,6.0,58,-99.99,,,-99.99,WSDL version 420,2013-03-12 00:40:00,
2013-03-11 18:45:00,37.7,24.3,24.45,SW,225,4.0,6.0,58,0.00,,,0.00,WSDL version 420,2013-03-12 00:45:00,
2013-03-11 18:50:00,37.8,24.7,24.45,SW,218,2.1,6.3,59,-99.99,,,-99.99,WSDL version 420,2013-03-12 00:50:00,
2013-03-11 18:55:00,37.7,24.6,24.45,WSW,248,3.1,6.3,59,-99.99,,,-99.99,WSDL version 420,2013-03-12 00:55:00,
2013-03-11 19:05:00,37.1,25.1,24.48,WNW,300,1.4,5.4,62,-99.99,,,-99.99,WSDL version 420,2013-03-12 01:05:00,
2013-03-11 19:10:00,37.0,25.2,24.48,WSW,248,4.7,6.0,62,-99.99,,,-99.99,WSDL version 420,2013-03-12 01:10:00,
2013-03-11 19:15:00,37.0,25.6,24.48,SSW,203,1.4,6.0,63,-99.99,,,-99.99,WSDL version 420,2013-03-12 01:15:00,
2013-03-11 19:20:00,36.7,25.6,24.48,WSW,248,2.7,3.4,64,0.00,,,0.00,WSDL version 420,2013-03-12 01:20:00,
2013-03-11 19:25:00,36.6,25.6,24.48,SSW,203,1.3,3.4,64,-99.99,,,-99.99,WSDL version 420,2013-03-12 01:25:00,
2013-03-11 19:30:00,36.4,25.8,24.48,WSW,242,0.8,2.2,65,-99.99,,,-99.99,WSDL version 420,2013-03-12 01:30:00,
2013-03-11 19:35:00,36.3,25.9,24.48,WSW,240,0.7,2.2,66,0.00,,,0.00,WSDL version 420,2013-03-12 01:35:00,
2013-03-11 19:40:00,36.1,25.9,24.48,SW,236,2.0,2.2,66,0.00,,,0.00,WSDL version 420,2013-03-12 01:40:00,
2013-03-11 19:45:00,36.1,26.0,24.48,SSW,212,0.9,3.1,67,-99.99,,,-99.99,WSDL version 420,2013-03-12 01:45:00,
2013-03-11 19:50:00,35.8,26.0,24.48,WSW,248,2.2,3.1,67,-99.99,,,-99.99,WSDL version 420,2013-03-12 01:50:00,
2013-03-11 19:55:00,35.7,26.0,24.48,WSW,240,0.8,2.5,68,-99.99,,,-99.99,WSDL version 420,2013-03-12 01:55:00,
2013-03-11 20:00:00,35.6,26.3,24.48,West,259,1.9,3.8,69,-99.99,,,-99.99,WSDL version 420,2013-03-12 02:00:00,
2013-03-11 20:05:00,35.5,26.3,24.48,WSW,248,2.3,4.3,69,-99.99,,,-99.99,WSDL version 420,2013-03-12 02:05:00,
2013-03-11 20:10:00,35.2,26.4,24.48,West,270,2.9,4.3,70,-99.99,,,-99.99,WSDL version 420,2013-03-12 02:10:00,
2013-03-11 20:15:00,35.1,26.3,24.48,West,270,1.6,3.4,70,-99.99,,,-99.99,WSDL version 420,2013-03-12 02:15:00,
2013-03-11 20:20:00,35.2,26.8,24.48,NW,308,0.0,2.9,72,-99.99,,,-99.99,WSDL version 420,2013-03-12 02:20:00,
2013-03-11 20:25:00,35.4,27.1,24.48,ESE,120,1.3,2.9,71,-99.99,,,-99.99,WSDL version 420,2013-03-12 02:25:00,
2013-03-11 20:30:00,35.3,26.9,24.48,SSE,149,0.0,1.3,71,-99.99,,,-99.99,WSDL version 420,2013-03-12 02:30:00,
2013-03-11 20:35:00,35.3,26.8,24.51,NE,45,1.0,1.6,71,-99.99,,,-99.99,WSDL version 420,2013-03-12 02:35:00,
2013-03-11 20:40:00,35.3,26.8,24.51,East,83,0.9,2.7,71,-99.99,,,-99.99,WSDL version 420,2013-03-12 02:40:00,
2013-03-11 20:45:00,35.2,26.7,24.51,SSE,150,1.8,2.7,71,-99.99,,,-99.99,WSDL version 420,2013-03-12 02:45:00,
2013-03-11 20:50:00,35.1,26.6,24.51,WSW,248,1.4,2.7,71,-99.99,,,-99.99,WSDL version 420,2013-03-12 02:50:00,
2013-03-11 20:55:00,34.9,26.7,24.51,West,270,0.4,2.7,72,-99.99,,,-99.99,WSDL version 420,2013-03-12 02:55:00,
2013-03-11 21:00:00,34.9,26.8,24.51,West,261,0.4,2.2,72,-99.99,,,-99.99,WSDL version 420,2013-03-12 03:00:00,
2013-03-11 21:05:00,34.9,26.8,24.51,WSW,248,0.4,2.2,72,-99.99,,,-99.99,WSDL version 420,2013-03-12 03:05:00,
2013-03-11 21:15:00,34.9,26.9,24.51,WSW,248,0.4,2.0,73,-99.99,,,-99.99,WSDL version 420,2013-03-12 03:15:00,
2013-03-11 21:20:00,34.9,27.1,24.51,West,270,1.0,2.2,73,-99.99,,,-99.99,WSDL version 420,2013-03-12 03:20:00,
2013-03-11 21:25:00,34.9,27.1,24.51,NNW,338,1.5,2.2,73,-99.99,,,-99.99,WSDL version 420,2013-03-12 03:25:00,
2013-03-11 21:30:00,34.9,27.1,24.51,NNW,338,0.9,2.2,73,-99.99,,,-99.99,WSDL version 420,2013-03-12 03:30:00,
2013-03-11 21:35:00,34.9,27.1,24.51,NNW,338,0.7,2.2,73,-99.99,,,-99.99,WSDL version 420,2013-03-12 03:35:00,
2013-03-11 21:45:00,34.7,26.9,24.51,NNE,23,0.0,2.7,73,-99.99,,,-99.99,WSDL version 420,2013-03-12 03:45:00,
2013-03-11 21:50:00,34.5,26.8,24.51,NNE,23,1.1,2.7,73,-99.99,,,-99.99,WSDL version 420,2013-03-12 03:50:00,
2013-03-11 21:55:00,34.6,26.9,24.51,NNE,23,0.0,1.6,73,-99.99,,,-99.99,WSDL version 420,2013-03-12 03:55:00,
2013-03-11 22:00:00,34.5,26.8,24.51,NNE,23,1.6,2.2,73,-99.99,,,-99.99,WSDL version 420,2013-03-12 04:00:00,
2013-03-11 22:05:00,34.3,26.6,24.51,NNE,23,0.4,2.2,73,-99.99,,,-99.99,WSDL version 420,2013-03-12 04:05:00,
2013-03-11 22:10:00,34.3,26.6,24.51,NNE,23,0.4,2.5,73,-99.99,,,-99.99,WSDL version 420,2013-03-12 04:10:00,
2013-03-11 22:15:00,34.4,27.0,24.51,NNE,23,0.4,2.5,74,-99.99,,,-99.99,WSDL version 420,2013-03-12 04:15:00,
2013-03-11 22:20:00,34.5,27.1,24.54,NNE,23,0.7,2.0,74,-99.99,,,-99.99,WSDL version 420,2013-03-12 04:20:00,
2013-03-11 22:25:00,34.5,27.1,24.54,NNE,23,0.0,1.1,74,-99.99,,,-99.99,WSDL version 420,2013-03-12 04:25:00,
2013-03-11 22:30:00,34.5,27.2,24.54,NNE,23,0.0,0.0,74,-99.99,,,-99.99,WSDL version 420,2013-03-12 04:30:00,
2013-03-11 22:35:00,34.5,27.3,24.54,NNE,23,0.4,1.3,75,-99.99,,,-99.99,WSDL version 420,2013-03-12 04:35:00,
2013-03-11 22:40:00,34.7,27.6,24.54,NNE,23,0.6,1.3,75,-99.99,,,-99.99,WSDL version 420,2013-03-12 04:40:00,
2013-03-11 22:45:00,34.8,27.7,24.54,NNE,23,0.6,0.9,75,-99.99,,,-99.99,WSDL version 420,2013-03-12 04:45:00,
2013-03-11 22:50:00,34.8,27.7,24.54,NNE,23,0.0,0.9,75,-99.99,,,-99.99,WSDL version 420,2013-03-12 04:50:00,
2013-03-11 22:55:00,34.9,27.8,24.54,NNE,23,0.0,0.0,75,-99.99,,,-99.99,WSDL version 420,2013-03-12 04:55:00,
2013-03-11 23:00:00,34.9,28.1,24.54,NNE,23,0.0,0.0,76,-99.99,,,-99.99,WSDL version 420,2013-03-12 05:00:00,
2013-03-11 23:05:00,34.9,28.1,24.54,NNE,23,0.0,0.0,76,-99.99,,,-99.99,WSDL version 420,2013-03-12 05:05:00,
2013-03-11 23:10:00,34.9,28.1,24.54,NNE,23,0.0,0.0,76,-99.99,,,-99.99,WSDL version 420,2013-03-12 05:10:00,
2013-03-11 23:15:00,34.9,28.1,24.54,NNE,23,0.0,0.0,76,-99.99,,,-99.99,WSDL version 420,2013-03-12 05:15:00,
2013-03-11 23:20:00,34.8,27.8,24.54,NNE,23,0.6,0.9,75,-99.99,,,-99.99,WSDL version 420,2013-03-12 05:20:00,
2013-03-11 23:25:00,34.7,27.6,24.54,NNE,23,0.0,0.9,75,-99.99,,,-99.99,WSDL version 420,2013-03-12 05:25:00,
2013-03-11 23:30:00,34.6,27.5,24.54,NNE,23,1.0,1.1,75,-99.99,,,-99.99,WSDL version 420,2013-03-12 05:30:00,
2013-03-11 23:35:00,34.4,27.3,24.54,NNE,23,0.4,1.6,75,-99.99,,,-99.99,WSDL version 420,2013-03-12 05:35:00,
2013-03-11 23:40:00,34.2,27.1,24.54,NNE,23,1.4,1.6,75,-99.99,,,-99.99,WSDL version 420,2013-03-12 05:40:00,
2013-03-11 23:45:00,33.9,26.8,24.54,NNE,23,0.0,1.6,75,-99.99,,,-99.99,WSDL version 420,2013-03-12 05:45:00,
2013-03-11 23:50:00,33.8,26.7,24.54,NNE,23,0.4,2.0,75,-99.99,,,-99.99,WSDL version 420,2013-03-12 05:50:00,
2013-03-11 23:55:00,33.7,26.6,24.54,NNE,23,2.2,2.5,75,-99.99,,,-99.99,WSDL version 420,2013-03-12 05:55:00,